Saint Helena, California
Current Conditions -  °F | °C
As of 4:53 AM on Saturday 25 Oct 2014 (Local Time) from KSTS Reporting Station
Moderate Rain Moderate Rain  
Wind Chill: 59°   Ceiling: 2200
Heat Index: 59°   Visibility: 4mi
Dew Point: 56°   Wind: 8mph
Humidity: 90%   Direction: 210°SSW
Pressure: 29.89"   Gusts: 22mph
Location:  38.51°N, 122.47°W
Report Text: KSTS 251153Z AUTO 21007G19KT 180V250 4SM RA BR FEW013 BKN022 OVC044 15/13 A2989 RMK AO2 SLP115 P0005 60011 70011 T01500133 10183 20150 53006
Loading
Personal Weather Stations






























Interactive Weather Map
Tropical Storm Tracking
New forecast layout! Learn more

10-Day Weather Forecast

Advertisements
Track Severe Weather on mobile